Terminal Aerodrome Forecast
Issued by NWS Lake Charles, LA

Home | Current Version | Previous Version | Text Only | Print | Product List | Glossary On
Versions: 1 2 3 4 5 6 7 8 9 10 11 12 13 14 15 16
737
FTUS44 KLCH 100520
TAFLCH
TAF
KLCH 100520Z 1006/1106 VRB05KT P6SM SKC
     FM101800 20007KT P6SM SKC=

USA.gov is the U.S. government's official web portal to all federal, state and local government web resources and services.